createdAt,value
2019-05-14T00:01:07.548Z,58.67
2019-05-14T00:06:11.947Z,58.67
2019-05-14T00:11:16.301Z,59.01
2019-05-14T00:16:23.813Z,59.27
2019-05-14T00:21:26.901Z,57.89
2019-05-14T00:26:31.841Z,59.35
2019-05-14T00:31:36.378Z,61.64
2019-05-14T00:36:41.639Z,59.66
2019-05-14T00:41:46.286Z,59.35
2019-05-14T00:46:51.614Z,60.50
2019-05-14T00:51:56.182Z,61.00
2019-05-14T00:57:01.440Z,61.97
2019-05-14T01:02:06.005Z,61.48
2019-05-14T01:07:11.842Z,60.93
2019-05-14T01:12:18.668Z,60.90
2019-05-14T01:17:22.967Z,60.43
2019-05-14T01:22:27.352Z,62.06
2019-05-14T01:27:31.871Z,61.97
2019-05-14T01:32:36.278Z,61.39
2019-05-14T01:37:41.661Z,61.00
2019-05-14T01:42:47.210Z,61.46
2019-05-14T01:47:52.133Z,60.19
2019-05-14T01:52:56.509Z,61.62
2019-05-14T01:58:02.309Z,61.89
2019-05-14T02:03:07.958Z,63.66
2019-05-14T02:08:13.368Z,63.70
2019-05-14T02:13:17.723Z,64.63
2019-05-14T02:18:22.069Z,67.04
2019-05-14T02:23:26.435Z,65.37
2019-05-14T02:28:31.463Z,65.15
2019-05-14T02:33:39.450Z,65.42
2019-05-14T02:38:42.136Z,66.77
2019-05-14T02:43:49.919Z,66.54
2019-05-14T02:48:52.604Z,66.70
2019-05-14T02:53:59.181Z,65.97
2019-05-14T02:59:05.785Z,67.19
2019-05-14T03:04:09.780Z,68.43
2019-05-14T03:09:14.283Z,68.19
2019-05-14T03:14:19.509Z,68.22
2019-05-14T03:19:24.184Z,69.00
2019-05-14T03:24:29.803Z,68.62
2019-05-14T03:29:34.196Z,68.87
2019-05-14T03:34:42.880Z,69.88
2019-05-14T03:39:44.621Z,69.80
2019-05-14T03:44:49.232Z,67.74
2019-05-14T03:49:53.892Z,67.70
2019-05-14T03:55:01.300Z,68.26
2019-05-14T04:00:06.048Z,66.81
2019-05-14T04:05:12.126Z,67.98
2019-05-14T04:10:19.513Z,66.54
2019-05-14T04:15:24.327Z,67.37
2019-05-14T04:20:30.254Z,66.97
2019-05-14T04:25:39.040Z,64.82
2019-05-14T04:30:44.095Z,64.83
2019-05-14T04:35:49.187Z,65.13
2019-05-14T04:40:53.661Z,62.52
2019-05-14T04:45:59.217Z,62.07
2019-05-14T04:51:04.066Z,60.52
2019-05-14T04:56:09.820Z,61.89
2019-05-14T05:01:14.485Z,60.20
2019-05-14T05:06:19.236Z,61.75
2019-05-14T05:11:23.815Z,61.23
2019-05-14T05:16:29.558Z,60.74
2019-05-14T05:21:34.332Z,60.07
2019-05-14T05:26:39.362Z,60.73
2019-05-14T05:31:43.835Z,59.94
2019-05-14T05:36:48.684Z,59.64
2019-05-14T05:41:53.087Z,60.05
2019-05-14T05:46:59.639Z,59.70
2019-05-14T05:52:03.543Z,59.74
2019-05-14T05:57:09.305Z,60.00
2019-05-14T06:02:14.606Z,59.92
2019-05-14T06:07:18.969Z,59.31
2019-05-14T06:12:23.368Z,60.65
2019-05-14T06:17:28.524Z,60.08
2019-05-14T06:22:33.065Z,60.37
2019-05-14T06:27:38.002Z,57.92
2019-05-14T06:32:42.577Z,57.03
2019-05-14T06:37:49.035Z,56.97
2019-05-14T06:42:53.073Z,58.58
2019-05-14T06:47:59.316Z,58.75
2019-05-14T06:53:03.768Z,57.09
2019-05-14T06:58:09.201Z,54.76
2019-05-14T07:03:13.711Z,55.69
2019-05-14T07:08:18.799Z,55.64
2019-05-14T07:13:23.411Z,54.39
2019-05-14T07:18:30.236Z,53.24
2019-05-14T07:23:38.187Z,51.98
2019-05-14T07:28:42.650Z,54.40
2019-05-14T07:33:49.333Z,55.34
2019-05-14T07:38:56.396Z,54.67
2019-05-14T07:43:59.181Z,55.78
2019-05-14T07:49:08.451Z,55.18
2019-05-14T07:54:09.583Z,53.91
2019-05-14T07:59:13.961Z,53.45
2019-05-14T08:04:20.007Z,55.50
2019-05-14T08:09:24.536Z,55.05
2019-05-14T08:14:33.608Z,55.03
2019-05-14T08:19:34.995Z,56.69
2019-05-14T08:24:39.493Z,56.82
2019-05-14T08:29:43.866Z,57.12
2019-05-14T08:34:48.310Z,57.71
2019-05-14T08:39:52.765Z,57.99
2019-05-14T08:44:59.179Z,58.75
2019-05-14T08:50:03.277Z,58.95
2019-05-14T08:55:11.103Z,58.91
2019-05-14T09:00:14.309Z,59.23
2019-05-14T09:05:18.715Z,57.75
2019-05-14T09:10:24.145Z,58.18
2019-05-14T09:15:28.895Z,57.62
2019-05-14T09:20:33.366Z,57.27
2019-05-14T09:25:46.431Z,54.89
2019-05-14T09:30:43.949Z,54.74
2019-05-14T09:35:49.355Z,53.02
2019-05-14T09:41:06.947Z,50.76
2019-05-14T09:46:00.001Z,52.66
2019-05-14T09:51:04.368Z,54.15
2019-05-14T09:56:09.255Z,54.16
2019-05-14T10:01:13.683Z,52.83
2019-05-14T10:06:20.663Z,51.14
2019-05-14T10:11:24.279Z,49.75
2019-05-14T10:16:29.208Z,51.08
2019-05-14T10:21:33.707Z,50.70
2019-05-14T10:26:39.451Z,50.29
2019-05-14T10:31:44.055Z,51.04
2019-05-14T10:36:48.439Z,52.27
2019-05-14T10:41:52.791Z,52.23
2019-05-14T10:46:58.267Z,53.61
2019-05-14T10:52:02.825Z,55.82
2019-05-14T10:57:09.559Z,57.68
2019-05-14T11:02:13.261Z,59.28
2019-05-14T11:07:18.624Z,58.04
2019-05-14T11:12:23.167Z,54.87
2019-05-14T11:17:29.088Z,55.53
2019-05-14T11:22:33.786Z,56.53
2019-05-14T11:27:38.903Z,63.05
2019-05-14T11:32:43.492Z,67.90
2019-05-14T11:37:48.349Z,69.24
2019-05-14T11:42:52.948Z,71.95
2019-05-14T11:47:58.448Z,71.95
2019-05-14T11:53:03.231Z,69.54
2019-05-14T11:58:08.752Z,68.31
2019-05-14T12:03:14.100Z,67.93
2019-05-14T12:08:18.896Z,64.73
2019-05-14T12:13:23.466Z,64.85
2019-05-14T12:18:29.190Z,67.77
2019-05-14T12:23:33.829Z,91.42
2019-05-14T12:28:38.753Z,80.08
2019-05-14T12:33:43.326Z,79.03
2019-05-14T12:38:47.709Z,80.63
2019-05-14T12:43:52.226Z,78.45
2019-05-14T12:48:58.949Z,77.65
2019-05-14T12:54:02.818Z,81.32
2019-05-14T12:59:07.261Z,80.01
2019-05-14T13:04:11.626Z,79.60
2019-05-14T13:09:20.833Z,80.08
2019-05-14T13:14:22.075Z,77.59
2019-05-14T13:19:28.494Z,78.81
2019-05-14T13:24:32.615Z,79.85
2019-05-14T13:29:36.975Z,79.74
2019-05-14T13:34:41.372Z,78.46
2019-05-14T13:39:50.008Z,76.92
2019-05-14T13:44:51.887Z,76.85
2019-05-14T13:49:59.060Z,74.80
2019-05-14T13:55:02.299Z,73.26
2019-05-14T14:00:11.871Z,72.02
2019-05-14T14:05:15.120Z,73.53
2019-05-14T14:10:19.512Z,73.91
2019-05-14T14:15:24.830Z,75.33
2019-05-14T14:20:29.276Z,75.30
2019-05-14T14:25:33.806Z,78.64
2019-05-14T14:30:39.626Z,78.22
2019-05-14T14:35:44.194Z,75.28
2019-05-14T14:40:48.794Z,73.56
2019-05-14T14:45:53.129Z,76.50
2019-05-14T14:50:58.613Z,75.67
2019-05-14T14:56:03.236Z,73.60
2019-05-14T15:01:08.899Z,72.69
2019-05-14T15:06:14.573Z,73.93
2019-05-14T15:11:19.083Z,71.99
2019-05-14T15:16:24.212Z,73.14
2019-05-14T15:21:29.909Z,70.89
2019-05-14T15:26:35.495Z,72.94
2019-05-14T15:31:40.022Z,71.99
2019-05-14T15:36:44.340Z,70.65
2019-05-14T15:41:49.858Z,71.68
2019-05-14T15:46:54.448Z,71.18
2019-05-14T15:51:58.828Z,69.43
2019-05-14T15:57:03.191Z,56.42
2019-05-14T16:02:09.427Z,55.47
2019-05-14T16:07:13.671Z,53.17
2019-05-14T16:12:19.686Z,53.47
2019-05-14T16:17:30.368Z,52.16
2019-05-14T16:22:35.000Z,51.84
2019-05-14T16:27:39.958Z,52.00
2019-05-14T16:32:44.533Z,46.92
2019-05-14T16:37:48.910Z,47.31
2019-05-14T16:42:53.279Z,46.21
2019-05-14T16:47:59.315Z,47.70
2019-05-14T16:53:03.791Z,45.77
2019-05-14T16:58:08.953Z,45.22
2019-05-14T17:03:13.400Z,44.71
2019-05-14T17:08:19.001Z,44.83
2019-05-14T17:13:23.582Z,45.32
2019-05-14T17:18:28.710Z,44.90
2019-05-14T17:23:33.278Z,45.00
2019-05-14T17:28:40.339Z,44.94
2019-05-14T17:33:43.738Z,44.26
2019-05-14T17:38:49.148Z,43.73
2019-05-14T17:43:53.883Z,45.00
2019-05-14T17:48:59.188Z,45.78
2019-05-14T17:54:03.671Z,45.20
2019-05-14T17:59:08.722Z,45.59
2019-05-14T18:04:13.304Z,45.75
2019-05-14T18:09:19.794Z,46.20
2019-05-14T18:14:23.815Z,45.62
2019-05-14T18:19:29.022Z,46.11
2019-05-14T18:24:34.567Z,45.16
2019-05-14T18:29:39.227Z,45.50
2019-05-14T18:34:43.651Z,45.69
2019-05-14T18:39:48.530Z,45.55
2019-05-14T18:44:52.959Z,45.79
2019-05-14T18:49:59.507Z,46.81
2019-05-14T18:55:08.470Z,47.25
2019-05-14T19:00:34.001Z,47.31
2019-05-14T19:05:38.447Z,47.77
2019-05-14T19:10:42.885Z,47.84
2019-05-14T19:15:48.349Z,48.32
2019-05-14T19:20:52.807Z,49.02
2019-05-14T19:25:59.171Z,48.53
2019-05-14T19:31:03.231Z,48.80
2019-05-14T19:36:08.833Z,49.21
2019-05-14T19:41:13.408Z,49.25
2019-05-14T19:46:17.742Z,49.42
2019-05-14T19:51:22.082Z,50.12
2019-05-14T19:56:29.116Z,50.60
2019-05-14T20:01:32.538Z,50.20
2019-05-14T20:06:38.857Z,50.84
2019-05-14T20:11:42.975Z,51.92
2019-05-14T20:16:49.080Z,51.48
2019-05-14T20:21:54.716Z,51.77
2019-05-14T20:27:08.229Z,51.79
2019-05-14T20:32:05.188Z,52.31
2019-05-14T20:37:09.576Z,52.42
2019-05-14T20:42:14.013Z,52.03
2019-05-14T20:47:18.991Z,51.27
2019-05-14T20:52:23.534Z,52.28
2019-05-14T20:57:33.214Z,52.38
2019-05-14T21:02:33.981Z,52.22
2019-05-14T21:07:38.676Z,52.12
2019-05-14T21:12:43.250Z,52.10
2019-05-14T21:17:50.249Z,52.25
2019-05-14T21:22:53.894Z,52.64
2019-05-14T21:27:58.941Z,52.70
2019-05-14T21:33:04.529Z,53.53
2019-05-14T21:38:09.855Z,53.84
2019-05-14T21:43:14.221Z,53.78
2019-05-14T21:48:19.903Z,54.40
2019-05-14T21:53:24.467Z,54.21
2019-05-14T21:58:29.215Z,54.84
2019-05-14T22:03:33.627Z,54.56
2019-05-14T22:08:39.244Z,54.82
2019-05-14T22:13:43.964Z,55.56
2019-05-14T22:18:48.490Z,55.30
2019-05-14T22:23:52.968Z,55.99
2019-05-14T22:28:58.682Z,56.11
2019-05-14T22:34:03.192Z,56.11
2019-05-14T22:39:07.547Z,56.82
2019-05-14T22:44:11.891Z,56.40
2019-05-14T22:49:18.623Z,56.29
2019-05-14T22:54:22.335Z,56.83
2019-05-14T22:59:28.337Z,56.57
2019-05-14T23:04:32.858Z,56.35
2019-05-14T23:09:38.804Z,56.43
2019-05-14T23:14:43.242Z,55.74
2019-05-14T23:19:48.359Z,56.18
2019-05-14T23:24:52.829Z,55.26
2019-05-14T23:29:58.699Z,55.19
2019-05-14T23:35:03.372Z,55.43
2019-05-14T23:40:08.562Z,55.13
2019-05-14T23:45:13.168Z,55.63
2019-05-14T23:50:17.579Z,56.21
2019-05-14T23:55:21.948Z,56.80
